Time;durP1;ratioP1;P1;durP2;ratioP2;P2;SDS_P1;SDS_P2;PMS_P1;PMS_P2;Temp;Humidity;BMP_temperature;BMP_pressure;BME280_temperature;BME280_humidity;BME280_pressure;Samples;Min_cycle;Max_cycle;Signal;HPM_P1;HPM_P2
2022/02/24 00:00:15;;;;;;;16.02;11.68;;;22.50;45.50;;;;;;4995770;28;20546;-71
2022/02/24 00:02:41;;;;;;;17.10;11.98;;;22.50;45.50;;;;;;4997817;28;20023;-69
2022/02/24 00:05:08;;;;;;;17.27;12.18;;;22.50;45.50;;;;;;5003082;28;20034;-71
2022/02/24 00:07:33;;;;;;;15.40;11.00;;;22.50;45.50;;;;;;4998068;28;20041;-70
2022/02/24 00:09:59;;;;;;;16.23;11.50;;;22.50;45.50;;;;;;4995339;28;20041;-69
2022/02/24 00:12:25;;;;;;;17.38;11.60;;;22.50;45.50;;;;;;4998331;28;20042;-70
2022/02/24 00:14:52;;;;;;;15.43;11.73;;;22.50;45.40;;;;;;4996230;28;20053;-71
2022/02/24 00:17:19;;;;;;;15.48;10.70;;;22.50;45.50;;;;;;4998084;28;20033;-71
2022/02/24 00:19:45;;;;;;;14.45;10.68;;;22.50;45.40;;;;;;5002859;28;20026;-71
2022/02/24 00:22:11;;;;;;;14.95;11.00;;;22.40;45.40;;;;;;5004398;28;20399;-70
2022/02/24 00:24:37;;;;;;;15.23;11.18;;;22.40;45.40;;;;;;5007822;28;20533;-69
2022/02/24 00:27:02;;;;;;;15.55;10.68;;;22.40;45.40;;;;;;4996970;28;20113;-71
2022/02/24 00:29:28;;;;;;;14.27;10.57;;;22.40;45.40;;;;;;4996747;28;20399;-71
2022/02/24 00:31:54;;;;;;;15.32;11.00;;;22.40;45.40;;;;;;4997432;28;20049;-69
2022/02/24 00:34:23;;;;;;;15.85;11.13;;;22.40;45.40;;;;;;4997613;28;20038;-69
2022/02/24 00:36:53;;;;;;;14.20;10.35;;;22.40;45.50;;;;;;4998923;28;20574;-69
2022/02/24 00:39:20;;;;;;;13.23;10.20;;;22.40;45.50;;;;;;4994068;28;20048;-70
2022/02/24 00:41:46;;;;;;;14.13;10.27;;;22.40;45.40;;;;;;4995394;28;20026;-70
2022/02/24 00:44:12;;;;;;;13.43;10.30;;;22.30;45.40;;;;;;4999571;28;20048;-70
2022/02/24 00:46:38;;;;;;;12.60;9.20;;;22.30;45.40;;;;;;4995390;28;20038;-71
2022/02/24 00:49:03;;;;;;;12.73;9.85;;;22.30;45.40;;;;;;4995036;28;20022;-71
2022/02/24 00:51:29;;;;;;;15.10;10.07;;;22.30;45.40;;;;;;5012591;28;20370;-71
2022/02/24 00:53:55;;;;;;;13.60;10.13;;;22.30;45.40;;;;;;4991962;28;20520;-71
2022/02/24 00:56:20;;;;;;;12.90;9.38;;;22.30;45.50;;;;;;4996924;28;20037;-71
2022/02/24 00:58:46;;;;;;;14.18;9.95;;;22.30;45.40;;;;;;4996535;28;20038;-70
2022/02/24 01:01:12;;;;;;;13.73;10.32;;;22.30;45.50;;;;;;4993811;28;20127;-71
2022/02/24 01:03:37;;;;;;;14.05;9.98;;;22.30;45.40;;;;;;4997208;28;20535;-69
2022/02/24 01:06:03;;;;;;;13.07;9.23;;;22.20;45.40;;;;;;4998327;28;20027;-71
2022/02/24 01:08:29;;;;;;;13.25;9.23;;;22.20;45.40;;;;;;4994071;28;20029;-70
2022/02/24 01:10:54;;;;;;;13.48;9.50;;;22.20;45.40;;;;;;4995896;28;20548;-70
2022/02/24 01:13:20;;;;;;;12.60;9.23;;;22.20;45.40;;;;;;4995823;28;20049;-71
2022/02/24 01:15:46;;;;;;;11.75;9.15;;;22.20;45.40;;;;;;4997457;28;20489;-69
2022/02/24 01:18:12;;;;;;;13.00;9.45;;;22.20;45.40;;;;;;4996628;28;20386;-70
2022/02/24 01:20:38;;;;;;;11.80;8.65;;;22.20;45.40;;;;;;4998189;28;20058;-70
2022/02/24 01:23:05;;;;;;;11.95;8.80;;;22.10;45.40;;;;;;5009032;28;20029;-70
2022/02/24 01:25:32;;;;;;;11.77;8.13;;;22.10;45.40;;;;;;4994037;28;20026;-70
2022/02/24 01:27:58;;;;;;;11.50;8.20;;;22.10;45.40;;;;;;4997442;28;20025;-70
2022/02/24 01:30:23;;;;;;;11.90;8.23;;;22.10;45.40;;;;;;4996505;28;20034;-70
2022/02/24 01:32:49;;;;;;;10.85;8.18;;;22.10;45.90;;;;;;5012311;28;20034;-71
2022/02/24 01:35:14;;;;;;;10.75;8.50;;;22.10;45.40;;;;;;5011214;28;20469;-70
2022/02/24 01:37:40;;;;;;;12.93;8.63;;;22.10;45.40;;;;;;4996205;28;20399;-72
2022/02/24 01:40:07;;;;;;;11.07;8.38;;;22.10;45.40;;;;;;4992827;28;20030;-70
2022/02/24 01:42:33;;;;;;;11.52;8.38;;;22.10;45.40;;;;;;4995793;28;20029;-69
2022/02/24 01:44:58;;;;;;;11.10;8.07;;;22.00;45.40;;;;;;4997047;28;20182;-69
2022/02/24 01:47:25;;;;;;;10.30;7.82;;;22.00;45.40;;;;;;4996757;28;20038;-70
2022/02/24 01:49:51;;;;;;;10.02;7.82;;;22.00;45.40;;;;;;4995216;28;20049;-71
2022/02/24 01:52:18;;;;;;;10.68;8.27;;;22.00;45.50;;;;;;4997163;28;20406;-70
2022/02/24 01:54:43;;;;;;;11.30;7.75;;;22.00;45.50;;;;;;4992150;28;20026;-70
2022/02/24 01:57:09;;;;;;;11.32;7.88;;;22.00;45.40;;;;;;4996761;28;20354;-70
2022/02/24 01:59:35;;;;;;;11.15;7.25;;;22.00;45.40;;;;;;4995880;28;20489;-71
2022/02/24 02:02:01;;;;;;;10.75;7.88;;;22.00;45.40;;;;;;4994362;28;20045;-71
2022/02/24 02:04:26;;;;;;;13.20;7.78;;;21.90;45.40;;;;;;4996424;28;20034;-71
2022/02/24 02:06:53;;;;;;;10.88;7.35;;;21.90;45.40;;;;;;4997254;28;20525;-71
2022/02/24 02:09:20;;;;;;;10.38;7.60;;;21.90;45.40;;;;;;4992828;28;20030;-70
2022/02/24 02:11:46;;;;;;;9.88;7.18;;;21.90;45.40;;;;;;4996369;28;20030;-69
2022/02/24 02:14:12;;;;;;;9.30;7.47;;;21.90;45.50;;;;;;4996304;28;20037;-71
2022/02/24 02:16:50;;;;;;;10.80;7.50;;;21.90;45.50;;;;;;4996418;28;20038;-71
2022/02/24 02:19:16;;;;;;;9.27;6.95;;;21.90;45.50;;;;;;4996581;28;20098;-71
2022/02/24 02:21:43;;;;;;;10.20;7.03;;;21.90;45.50;;;;;;4997054;28;20503;-70
2022/02/24 02:24:09;;;;;;;9.30;6.82;;;21.90;45.50;;;;;;4993631;28;20479;-69
2022/02/24 02:26:36;;;;;;;8.52;6.63;;;21.90;45.50;;;;;;4997907;28;20038;-70
2022/02/24 02:29:05;;;;;;;8.43;6.30;;;21.90;45.60;;;;;;4996479;28;20121;-70
2022/02/24 02:31:31;;;;;;;9.60;6.85;;;21.80;46.00;;;;;;4997001;28;20506;-70
2022/02/24 02:34:01;;;;;;;8.13;6.20;;;21.80;45.60;;;;;;4996194;28;20049;-71
2022/02/24 02:36:27;;;;;;;9.38;6.80;;;21.80;45.60;;;;;;4997513;28;20561;-70
2022/02/24 02:38:52;;;;;;;8.45;6.47;;;21.80;45.60;;;;;;4993139;28;20113;-71
2022/02/24 02:41:18;;;;;;;9.15;6.68;;;21.80;45.60;;;;;;4996276;28;20037;-71
2022/02/24 02:43:44;;;;;;;9.00;6.40;;;21.80;45.60;;;;;;5001649;28;20061;-70
2022/02/24 02:46:10;;;;;;;9.07;6.45;;;21.80;45.60;;;;;;4997556;28;20100;-70
2022/02/24 02:48:36;;;;;;;9.13;6.65;;;21.70;45.60;;;;;;5010791;28;20030;-70
2022/02/24 02:51:02;;;;;;;9.35;6.88;;;21.70;45.60;;;;;;5011682;28;20121;-70
2022/02/24 02:53:28;;;;;;;7.85;5.72;;;21.70;45.60;;;;;;4993413;28;20034;-71
2022/02/24 02:55:53;;;;;;;8.07;6.10;;;21.70;45.60;;;;;;5001447;28;20505;-70
2022/02/24 02:58:19;;;;;;;8.73;6.10;;;21.70;45.60;;;;;;4999447;28;20038;-70
2022/02/24 03:00:44;;;;;;;8.35;5.93;;;21.70;45.60;;;;;;4999783;28;20068;-70
2022/02/24 03:03:10;;;;;;;7.47;5.70;;;21.70;46.20;;;;;;4999464;28;20030;-70
2022/02/24 03:05:36;;;;;;;8.57;6.40;;;21.70;45.70;;;;;;4999955;28;20259;-70
2022/02/24 03:08:02;;;;;;;8.05;5.57;;;21.60;45.60;;;;;;4997688;28;20128;-71
2022/02/24 03:10:27;;;;;;;8.63;6.00;;;21.60;45.60;;;;;;4999047;28;20022;-71
2022/02/24 03:12:53;;;;;;;8.02;5.82;;;21.70;45.70;;;;;;5015098;28;20117;-71
2022/02/24 03:15:19;;;;;;;7.60;5.75;;;21.60;45.60;;;;;;4997818;28;20026;-70
2022/02/24 03:17:47;;;;;;;6.95;5.30;;;21.60;45.60;;;;;;4997905;28;20034;-69
2022/02/24 03:20:13;;;;;;;6.57;4.93;;;21.60;45.60;;;;;;5000049;28;20390;-71
2022/02/24 03:22:39;;;;;;;7.45;5.15;;;21.60;45.70;;;;;;4998927;28;20022;-70
2022/02/24 03:25:05;;;;;;;7.95;5.35;;;21.60;45.70;;;;;;5011843;28;20036;-70
2022/02/24 03:27:31;;;;;;;7.63;5.47;;;21.50;45.60;;;;;;5014685;28;20498;-70
2022/02/24 03:29:57;;;;;;;7.53;5.18;;;21.60;45.70;;;;;;5000098;28;20112;-71
2022/02/24 03:32:24;;;;;;;7.20;5.43;;;21.60;45.70;;;;;;4999277;28;20034;-70
2022/02/24 03:34:50;;;;;;;7.13;5.32;;;21.50;45.70;;;;;;4999615;28;20039;-69
2022/02/24 03:37:16;;;;;;;7.25;5.47;;;21.50;45.70;;;;;;4999983;28;20108;-70
2022/02/24 03:39:42;;;;;;;7.43;5.15;;;21.50;45.70;;;;;;5001388;28;20433;-71
2022/02/24 03:42:08;;;;;;;6.85;5.30;;;21.50;45.70;;;;;;4998960;28;20109;-70
2022/02/24 03:44:34;;;;;;;6.50;4.93;;;21.50;45.70;;;;;;5013509;28;20023;-71
2022/02/24 03:47:00;;;;;;;7.20;5.32;;;21.50;45.70;;;;;;5000616;28;20037;-69
2022/02/24 03:49:26;;;;;;;7.13;5.18;;;21.50;45.70;;;;;;4998327;28;20026;-70
2022/02/24 03:51:51;;;;;;;6.82;4.85;;;21.50;45.80;;;;;;4999225;28;20033;-68
2022/02/24 03:54:18;;;;;;;6.53;5.10;;;21.50;45.80;;;;;;5009180;28;20070;-70
2022/02/24 03:56:44;;;;;;;6.78;4.65;;;21.50;45.80;;;;;;5013504;28;20038;-70
2022/02/24 03:59:10;;;;;;;6.75;4.80;;;21.40;45.70;;;;;;4996810;28;20272;-70
2022/02/24 04:01:36;;;;;;;6.63;4.80;;;21.50;45.80;;;;;;4999336;28;20054;-70
2022/02/24 04:04:02;;;;;;;6.90;4.72;;;21.40;45.80;;;;;;4998450;28;20065;-70
2022/02/24 04:06:28;;;;;;;7.07;4.85;;;21.40;45.70;;;;;;4998459;28;20088;-70
2022/02/24 04:08:53;;;;;;;5.68;4.43;;;21.40;45.80;;;;;;4996164;28;20045;-69
2022/02/24 04:11:19;;;;;;;6.95;5.10;;;21.40;45.70;;;;;;4997979;28;20129;-70
2022/02/24 04:13:45;;;;;;;5.68;4.18;;;21.40;45.80;;;;;;4997972;28;20038;-70
2022/02/24 04:16:10;;;;;;;5.68;4.35;;;21.40;45.80;;;;;;4998516;28;20100;-71
2022/02/24 04:18:36;;;;;;;6.28;4.50;;;21.40;45.80;;;;;;4999075;28;20029;-69
2022/02/24 04:21:02;;;;;;;6.95;4.85;;;21.40;45.80;;;;;;5013404;28;20072;-69
2022/02/24 04:23:27;;;;;;;5.90;4.38;;;21.40;45.70;;;;;;4996475;28;20049;-71
2022/02/24 04:25:53;;;;;;;5.68;4.40;;;21.40;45.80;;;;;;4997959;28;20056;-69
2022/02/24 04:28:19;;;;;;;6.68;4.95;;;21.40;45.70;;;;;;5011522;28;20379;-70
2022/02/24 04:30:44;;;;;;;6.35;4.70;;;21.40;45.70;;;;;;4998378;28;20596;-70
2022/02/24 04:33:10;;;;;;;7.05;4.82;;;21.40;45.70;;;;;;4998423;28;20113;-70
2022/02/24 04:35:36;;;;;;;5.90;4.20;;;21.40;45.80;;;;;;4999118;28;20025;-70
2022/02/24 04:38:02;;;;;;;6.00;4.90;;;21.40;45.80;;;;;;4997333;28;20033;-70
2022/02/24 04:40:28;;;;;;;6.05;4.35;;;21.40;45.70;;;;;;4994935;28;20451;-69
2022/02/24 04:42:54;;;;;;;5.63;4.13;;;21.40;45.80;;;;;;4999496;28;20117;-70
2022/02/24 04:45:19;;;;;;;6.35;4.38;;;21.40;45.80;;;;;;4998444;28;20106;-70
2022/02/24 04:47:45;;;;;;;5.97;4.22;;;21.40;45.70;;;;;;4999255;28;20084;-69
2022/02/24 04:50:11;;;;;;;6.35;4.55;;;21.40;45.80;;;;;;5013349;28;20457;-70
2022/02/24 04:52:38;;;;;;;5.80;4.18;;;21.30;45.70;;;;;;4997141;28;20453;-71
2022/02/24 04:55:05;;;;;;;6.45;4.53;;;21.30;45.70;;;;;;4995397;28;20046;-71
2022/02/24 04:57:32;;;;;;;5.47;3.85;;;21.30;45.70;;;;;;4999054;28;20025;-69
2022/02/24 04:59:58;;;;;;;6.28;4.68;;;21.30;45.80;;;;;;4997155;28;20040;-69
2022/02/24 05:02:23;;;;;;;5.75;3.95;;;21.40;45.80;;;;;;5011984;28;20850;-70
2022/02/24 05:04:49;;;;;;;6.18;4.22;;;21.30;45.80;;;;;;4997872;28;20034;-70
2022/02/24 05:07:15;;;;;;;6.15;4.55;;;21.30;45.80;;;;;;4999164;28;20298;-71
2022/02/24 05:09:42;;;;;;;5.70;4.15;;;21.30;45.80;;;;;;4994083;28;20049;-71
2022/02/24 05:12:08;;;;;;;6.03;4.22;;;21.30;45.80;;;;;;5012776;28;20026;-70
2022/02/24 05:14:34;;;;;;;5.47;4.25;;;21.30;45.80;;;;;;5013477;28;20042;-70
2022/02/24 05:16:59;;;;;;;5.20;3.90;;;21.30;45.80;;;;;;4999621;28;20049;-68
2022/02/24 05:19:25;;;;;;;6.10;4.00;;;21.30;45.80;;;;;;4993853;28;20034;-70
2022/02/24 05:21:51;;;;;;;5.35;3.95;;;21.30;45.80;;;;;;4996876;28;20544;-71
2022/02/24 05:24:16;;;;;;;5.55;4.07;;;21.30;45.80;;;;;;4993455;28;20038;-70
2022/02/24 05:26:43;;;;;;;6.70;4.30;;;21.30;45.80;;;;;;5012747;28;20038;-70
2022/02/24 05:29:08;;;;;;;5.38;3.85;;;21.30;45.80;;;;;;4997130;28;20018;-70
2022/02/24 05:31:34;;;;;;;5.75;4.00;;;21.30;45.80;;;;;;4996329;28;20079;-70
2022/02/24 05:34:00;;;;;;;5.43;3.90;;;21.30;45.90;;;;;;4995266;28;20044;-69
2022/02/24 05:36:26;;;;;;;5.55;3.78;;;21.30;45.80;;;;;;4996579;28;20030;-70
2022/02/24 05:38:54;;;;;;;5.43;3.78;;;21.30;45.90;;;;;;4998108;28;20507;-70
2022/02/24 05:41:20;;;;;;;5.85;4.13;;;21.30;45.90;;;;;;4996687;28;20459;-70
2022/02/24 05:43:47;;;;;;;5.20;3.72;;;21.20;45.80;;;;;;4996008;28;20030;-70
2022/02/24 05:46:13;;;;;;;4.47;3.38;;;21.20;45.80;;;;;;4995986;28;20045;-69
2022/02/24 05:48:38;;;;;;;4.93;3.45;;;21.20;45.80;;;;;;4995369;28;20038;-69
2022/02/24 05:51:04;;;;;;;5.38;3.90;;;21.20;45.80;;;;;;4997402;28;20140;-69
2022/02/24 05:53:29;;;;;;;5.30;3.70;;;21.20;46.40;;;;;;4996253;28;20029;-69
2022/02/24 05:55:55;;;;;;;5.15;3.53;;;21.20;45.90;;;;;;4995778;28;20040;-71
2022/02/24 05:58:21;;;;;;;5.25;3.55;;;21.20;45.90;;;;;;4994591;28;20030;-69
2022/02/24 06:00:46;;;;;;;5.25;3.55;;;21.20;45.90;;;;;;4995224;28;20046;-67
2022/02/24 06:03:12;;;;;;;4.85;3.42;;;21.20;45.90;;;;;;4999829;28;20633;-67
2022/02/24 06:05:39;;;;;;;4.50;3.42;;;21.20;45.90;;;;;;4996166;28;20030;-69
2022/02/24 06:08:05;;;;;;;4.35;3.15;;;21.20;46.40;;;;;;4994403;28;20045;-68
2022/02/24 06:10:30;;;;;;;4.35;3.30;;;21.20;46.50;;;;;;4994567;28;20026;-70
2022/02/24 06:12:58;;;;;;;5.53;3.63;;;21.20;45.90;;;;;;5012503;28;20558;-70
2022/02/24 06:15:24;;;;;;;4.78;3.10;;;21.20;46.00;;;;;;4996701;28;20022;-68
2022/02/24 06:17:50;;;;;;;4.47;3.22;;;21.20;46.00;;;;;;4997066;28;20144;-70
2022/02/24 06:20:15;;;;;;;4.10;3.00;;;21.20;46.00;;;;;;4996030;28;20116;-70
2022/02/24 06:22:41;;;;;;;4.80;3.22;;;21.20;46.00;;;;;;4994793;28;20026;-70
2022/02/24 06:25:07;;;;;;;4.57;3.50;;;21.20;46.00;;;;;;5009275;28;20068;-70
2022/02/24 06:27:33;;;;;;;4.53;3.05;;;21.20;46.00;;;;;;5010524;28;20031;-71
2022/02/24 06:30:00;;;;;;;4.88;3.10;;;21.10;45.90;;;;;;4996690;28;20041;-69
2022/02/24 06:32:26;;;;;;;5.50;3.08;;;21.10;45.90;;;;;;5000280;28;20085;-70
2022/02/24 06:34:54;;;;;;;4.15;3.00;;;21.20;46.00;;;;;;5000799;28;20046;-69
2022/02/24 06:37:19;;;;;;;3.92;2.70;;;21.10;46.00;;;;;;5005182;28;20528;-69
2022/02/24 06:39:45;;;;;;;5.13;2.67;;;21.10;45.90;;;;;;4996983;28;20034;-69
2022/02/24 06:42:11;;;;;;;3.80;2.60;;;21.10;46.00;;;;;;5001333;28;20509;-69
2022/02/24 06:44:36;;;;;;;4.45;2.85;;;21.10;46.00;;;;;;5001191;28;20045;-69
2022/02/24 06:47:02;;;;;;;4.18;2.70;;;21.10;45.90;;;;;;5002324;28;20253;-70
2022/02/24 06:49:28;;;;;;;3.50;2.35;;;21.10;45.90;;;;;;5000770;28;20034;-69
2022/02/24 06:51:55;;;;;;;4.22;2.40;;;21.10;45.90;;;;;;5015846;28;20030;-69
2022/02/24 06:54:20;;;;;;;4.10;2.10;;;21.10;46.00;;;;;;4997376;28;20502;-70
2022/02/24 06:56:46;;;;;;;3.85;2.50;;;21.10;46.00;;;;;;4999788;28;20104;-70
2022/02/24 06:59:12;;;;;;;4.00;2.38;;;21.10;46.10;;;;;;4999250;28;20061;-70
2022/02/24 07:01:37;;;;;;;4.30;2.30;;;21.10;46.10;;;;;;5000121;28;20034;-69
2022/02/24 07:04:03;;;;;;;3.67;2.30;;;21.10;46.10;;;;;;5000192;28;20097;-70
2022/02/24 07:06:29;;;;;;;3.53;2.20;;;21.10;46.20;;;;;;5001188;28;20030;-68
2022/02/24 07:08:56;;;;;;;3.72;2.20;;;21.10;46.20;;;;;;4996647;28;20527;-69
2022/02/24 07:11:23;;;;;;;3.88;1.95;;;21.10;46.30;;;;;;4999742;28;20489;-70
2022/02/24 07:13:49;;;;;;;3.08;2.05;;;21.00;46.30;;;;;;5000564;28;20033;-69
2022/02/24 07:16:14;;;;;;;3.40;2.20;;;21.00;46.30;;;;;;4999559;28;20034;-67
2022/02/24 07:18:40;;;;;;;4.07;2.35;;;21.00;46.30;;;;;;4996797;28;20032;-69
2022/02/24 07:21:07;;;;;;;3.50;2.60;;;21.10;46.90;;;;;;5000301;28;20494;-68
2022/02/24 07:23:38;;;;;;;4.32;2.50;;;21.20;47.10;;;;;;4996512;28;20032;-68
2022/02/24 07:26:04;;;;;;;3.78;2.38;;;21.40;47.00;;;;;;4999810;28;20045;-68
2022/02/24 07:28:30;;;;;;;3.72;2.20;;;21.50;47.00;;;;;;5001981;28;20030;-70
2022/02/24 07:30:55;;;;;;;3.20;2.20;;;21.70;46.90;;;;;;5000281;28;20053;-70
2022/02/24 07:33:21;;;;;;;3.20;1.70;;;21.80;47.10;;;;;;5000258;28;20068;-68
2022/02/24 07:35:47;;;;;;;3.20;1.88;;;21.80;46.80;;;;;;4999805;28;20030;-65
2022/02/24 07:38:13;;;;;;;2.80;1.70;;;21.80;46.70;;;;;;4997893;28;20046;-66
2022/02/24 07:40:38;;;;;;;4.55;2.40;;;21.80;46.60;;;;;;4999464;28;20025;-69
2022/02/24 07:43:04;;;;;;;3.30;2.30;;;21.80;46.80;;;;;;4998610;28;20413;-70
2022/02/24 07:45:30;;;;;;;3.30;1.70;;;21.80;47.30;;;;;;4998766;28;20025;-67
2022/02/24 07:47:55;;;;;;;3.65;1.98;;;21.90;47.50;;;;;;4999380;28;20112;-70
2022/02/24 07:50:21;;;;;;;2.50;1.55;;;21.90;47.60;;;;;;4998852;28;20500;-68
2022/02/24 07:52:47;;;;;;;2.80;1.60;;;21.90;47.70;;;;;;5014056;28;20041;-70
2022/02/24 07:55:14;;;;;;;2.55;1.73;;;21.90;48.10;;;;;;4996761;28;20082;-69
2022/02/24 07:57:41;;;;;;;3.20;1.77;;;22.00;48.50;;;;;;4998435;28;20056;-67
2022/02/24 08:00:13;;;;;;;3.40;1.90;;;22.00;48.80;;;;;;4998521;28;20030;-69
2022/02/24 08:02:39;;;;;;;4.97;1.85;;;22.00;49.00;;;;;;4996911;28;20130;-68
2022/02/24 08:05:05;;;;;;;3.08;1.65;;;22.10;48.90;;;;;;4999190;28;20029;-69
2022/02/24 08:07:30;;;;;;;2.85;1.65;;;22.10;49.80;;;;;;4998645;28;20042;-68
2022/02/24 08:09:56;;;;;;;3.00;1.55;;;22.20;49.40;;;;;;4994930;28;20033;-69
2022/02/24 08:12:40;;;;;;;2.45;1.55;;;22.20;49.30;;;;;;5014213;28;20103;-69
2022/02/24 08:15:14;;;;;;;2.67;1.58;;;22.20;49.60;;;;;;5000184;28;20079;-68
2022/02/24 08:17:41;;;;;;;2.65;1.45;;;22.30;49.70;;;;;;4999306;28;20034;-69
2022/02/24 08:20:08;;;;;;;2.53;1.52;;;22.30;50.50;;;;;;5000058;28;20305;-70
2022/02/24 08:22:39;;;;;;;2.63;1.40;;;22.40;50.30;;;;;;4999600;28;20105;-68
2022/02/24 08:25:07;;;;;;;2.15;1.52;;;22.40;50.50;;;;;;5008911;28;20049;-70
2022/02/24 08:27:37;;;;;;;2.75;1.65;;;22.40;50.60;;;;;;5000094;28;20164;-68
2022/02/24 08:30:06;;;;;;;2.70;1.70;;;22.50;50.70;;;;;;4998208;28;20456;-68
2022/02/24 08:32:32;;;;;;;3.70;1.40;;;22.50;50.80;;;;;;5000016;28;20082;-71
2022/02/24 08:34:58;;;;;;;2.25;1.45;;;22.50;50.80;;;;;;4998938;28;20035;-66
2022/02/24 08:37:25;;;;;;;2.35;1.55;;;22.50;51.10;;;;;;4997903;28;20034;-65
2022/02/24 08:39:51;;;;;;;2.92;1.45;;;22.60;51.10;;;;;;4994372;28;20032;-70
2022/02/24 08:42:17;;;;;;;2.53;1.63;;;22.60;51.30;;;;;;5003722;28;20030;-66
2022/02/24 08:44:43;;;;;;;2.72;1.58;;;22.70;51.60;;;;;;4998749;28;20029;-71
2022/02/24 08:47:11;;;;;;;3.92;1.60;;;22.70;51.60;;;;;;5000704;28;20033;-67
2022/02/24 08:49:37;;;;;;;2.45;1.42;;;22.80;52.10;;;;;;5000083;28;20031;-69
2022/02/24 08:52:03;;;;;;;2.08;1.33;;;22.80;51.90;;;;;;5002673;28;20437;-67
2022/02/24 08:54:29;;;;;;;2.47;1.50;;;22.80;51.30;;;;;;4996630;28;20041;-68
2022/02/24 08:56:55;;;;;;;2.97;1.90;;;22.80;52.00;;;;;;5000957;28;20076;-68
2022/02/24 08:59:20;;;;;;;3.13;1.90;;;22.90;49.60;;;;;;5002247;28;20064;-69
2022/02/24 09:01:46;;;;;;;3.13;1.92;;;22.90;47.90;;;;;;4998867;28;20034;-69
2022/02/24 09:04:13;;;;;;;3.28;2.15;;;22.80;46.60;;;;;;5001311;28;20113;-68
2022/02/24 09:06:38;;;;;;;3.53;2.30;;;22.80;45.90;;;;;;5000259;28;20097;-68
2022/02/24 09:09:04;;;;;;;2.53;1.73;;;22.80;45.10;;;;;;4996676;28;20489;-69
2022/02/24 09:11:29;;;;;;;2.97;1.80;;;22.80;45.50;;;;;;5001103;28;20117;-68
2022/02/24 09:13:55;;;;;;;2.88;2.00;;;22.80;45.20;;;;;;5000144;28;20545;-66
2022/02/24 09:16:21;;;;;;;2.75;1.70;;;22.80;45.30;;;;;;5017615;28;20041;-67
2022/02/24 09:18:47;;;;;;;2.75;1.85;;;22.80;45.20;;;;;;4999487;28;20036;-67
2022/02/24 09:21:13;;;;;;;3.55;1.98;;;22.80;45.10;;;;;;5018982;28;20105;-69
2022/02/24 09:23:38;;;;;;;3.08;1.85;;;22.80;44.90;;;;;;5011921;28;20513;-69
2022/02/24 09:26:04;;;;;;;3.33;2.17;;;22.80;44.90;;;;;;5013283;28;20037;-69
2022/02/24 09:28:30;;;;;;;3.38;1.90;;;22.90;45.00;;;;;;4998291;28;20483;-69
2022/02/24 09:30:55;;;;;;;3.20;2.00;;;22.90;44.80;;;;;;4994747;28;20487;-71
2022/02/24 09:33:21;;;;;;;3.42;2.10;;;22.90;45.00;;;;;;4998972;28;20023;-67
2022/02/24 09:35:47;;;;;;;3.00;2.00;;;22.80;44.80;;;;;;4999673;28;20030;-69
2022/02/24 09:38:14;;;;;;;2.88;2.00;;;22.90;45.00;;;;;;4996784;28;20056;-69
2022/02/24 09:40:41;;;;;;;2.92;2.03;;;22.90;44.90;;;;;;4995912;28;20438;-70
2022/02/24 09:43:06;;;;;;;2.80;1.75;;;22.90;45.00;;;;;;4996113;28;20052;-68
2022/02/24 09:45:32;;;;;;;2.92;2.00;;;22.90;45.00;;;;;;5012045;28;20021;-69
2022/02/24 09:48:02;;;;;;;4.05;2.00;;;22.90;45.00;;;;;;4996885;28;20045;-65
2022/02/24 09:50:29;;;;;;;3.30;1.77;;;22.90;45.00;;;;;;5001062;28;20410;-68
2022/02/24 09:52:54;;;;;;;2.83;1.70;;;22.90;45.00;;;;;;4995431;28;20525;-68
2022/02/24 09:55:20;;;;;;;3.55;2.05;;;22.90;45.00;;;;;;4995909;28;20121;-69
2022/02/24 09:57:46;;;;;;;2.75;1.90;;;22.90;45.00;;;;;;4996535;28;20042;-66
2022/02/24 10:00:12;;;;;;;3.22;1.77;;;22.90;45.10;;;;;;4993731;28;20037;-69
2022/02/24 10:02:38;;;;;;;3.13;1.83;;;22.90;45.10;;;;;;4996335;28;20045;-67
2022/02/24 10:05:09;;;;;;;3.10;2.03;;;22.90;45.10;;;;;;4998045;28;20023;-66
2022/02/24 10:07:36;;;;;;;2.90;1.73;;;22.90;45.00;;;;;;4995046;28;20037;-70
2022/02/24 10:10:31;;;;;;;2.88;1.70;;;23.00;45.10;;;;;;4993875;28;20060;-72
2022/02/24 10:12:59;;;;;;;3.35;2.20;;;23.00;45.00;;;;;;4996630;28;20096;-70
2022/02/24 10:15:25;;;;;;;3.03;2.00;;;23.00;45.00;;;;;;4998835;28;20124;-72
2022/02/24 10:18:15;;;;;;;2.35;1.63;;;23.00;45.00;;;;;;4998646;28;20034;-70
2022/02/24 10:20:43;;;;;;;;;;;23.00;45.00;;;;;;4998813;28;20030;-70
2022/02/24 10:23:09;;;;;;;2.90;1.90;;;23.00;44.90;;;;;;5011935;28;19922;-69
2022/02/24 10:25:44;;;;;;;2.80;1.80;;;23.10;44.90;;;;;;4996178;28;20276;-67
2022/02/24 10:28:28;;;;;;;3.38;1.70;;;23.10;45.00;;;;;;5012536;28;20542;-69
2022/02/24 10:30:55;;;;;;;2.75;1.80;;;23.10;44.90;;;;;;4996604;28;20062;-68
2022/02/24 10:33:28;;;;;;;2.97;1.75;;;23.10;44.90;;;;;;4997524;28;20069;-70
2022/02/24 10:36:25;;;;;;;2.70;1.80;;;23.10;44.90;;;;;;4996429;28;20049;-70
2022/02/24 10:39:21;;;;;;;2.53;1.60;;;23.10;44.90;;;;;;4992960;28;20437;-69
2022/02/24 10:41:49;;;;;;;3.42;1.92;;;23.10;45.00;;;;;;4995680;28;20037;-70
2022/02/24 10:44:22;;;;;;;3.85;1.75;;;23.10;45.00;;;;;;4996734;28;20057;-68
2022/02/24 10:47:07;;;;;;;2.60;1.48;;;23.10;45.00;;;;;;4998212;28;20381;-69
2022/02/24 10:49:42;;;;;;;2.78;1.67;;;23.10;44.90;;;;;;4995314;28;20041;-69
2022/02/24 10:52:19;;;;;;;2.92;1.80;;;23.10;45.00;;;;;;4996949;28;20064;-67
2022/02/24 10:55:07;;;;;;;2.45;1.50;;;23.10;45.00;;;;;;4993219;28;20030;-68
2022/02/24 10:57:33;;;;;;;2.83;1.70;;;23.10;45.00;;;;;;5013289;28;20111;-66
2022/02/24 11:00:00;;;;;;;2.80;1.60;;;23.10;45.00;;;;;;4996957;28;20038;-70
2022/02/24 11:02:27;;;;;;;2.60;1.50;;;23.10;45.00;;;;;;4994162;28;20184;-70
2022/02/24 11:04:53;;;;;;;2.63;1.60;;;23.20;45.00;;;;;;4997015;28;20030;-70
2022/02/24 11:07:20;;;;;;;2.97;1.63;;;23.20;45.00;;;;;;4998756;28;20039;-69
2022/02/24 11:09:48;;;;;;;2.60;1.63;;;23.20;45.00;;;;;;4993713;28;20026;-68
2022/02/24 11:12:15;;;;;;;2.63;1.58;;;23.20;45.00;;;;;;4995725;28;20141;-70
2022/02/24 11:14:42;;;;;;;2.88;1.70;;;23.20;45.00;;;;;;4995953;28;20053;-70
2022/02/24 11:17:11;;;;;;;2.20;1.52;;;23.20;45.00;;;;;;4998228;28;20046;-70
2022/02/24 11:19:39;;;;;;;2.58;1.50;;;23.20;45.10;;;;;;5003730;28;20455;-70
2022/02/24 11:22:07;;;;;;;2.15;1.38;;;23.20;45.10;;;;;;5016279;28;20041;-67
2022/02/24 11:24:34;;;;;;;2.20;1.42;;;23.20;45.00;;;;;;4998106;28;20052;-67
2022/02/24 11:27:33;;;;;;;2.45;1.52;;;23.20;45.00;;;;;;4999520;28;20041;-67
2022/02/24 11:30:28;;;;;;;2.60;1.65;;;23.20;45.00;;;;;;4999752;28;20064;-67
2022/02/24 11:32:54;;;;;;;3.22;1.98;;;23.20;45.00;;;;;;4996804;28;20046;-66
2022/02/24 11:35:22;;;;;;;2.50;1.60;;;23.30;45.30;;;;;;5002035;28;20177;-69
2022/02/24 11:38:08;;;;;;;2.42;1.40;;;23.20;45.10;;;;;;4999163;28;20045;-67
2022/02/24 11:40:37;;;;;;;2.50;1.42;;;23.30;45.10;;;;;;5000222;28;20545;-67
2022/02/24 11:43:22;;;;;;;1.80;1.23;;;23.30;45.10;;;;;;4996037;28;22431;-68
2022/02/24 11:45:49;;;;;;;2.40;1.30;;;23.20;45.00;;;;;;4996832;28;20065;-65
2022/02/24 11:48:20;;;;;;;2.00;1.40;;;23.30;45.00;;;;;;4995977;28;20406;-69
2022/02/24 11:51:07;;;;;;;2.33;1.35;;;23.30;45.00;;;;;;5013728;28;20125;-68
2022/02/24 11:53:40;;;;;;;2.63;1.85;;;23.30;45.00;;;;;;4994957;28;20408;-67
2022/02/24 11:56:18;;;;;;;2.83;1.63;;;23.30;45.00;;;;;;4997919;28;20038;-69
2022/02/24 11:58:59;;;;;;;1.88;1.23;;;23.40;45.00;;;;;;4997499;28;20101;-71
2022/02/24 12:01:38;;;;;;;2.35;1.50;;;23.40;44.90;;;;;;4995887;28;20053;-70
2022/02/24 12:04:27;;;;;;;2.22;1.40;;;23.40;44.90;;;;;;5000071;28;20021;-68
2022/02/24 12:06:56;;;;;;;1.95;1.35;;;23.40;44.80;;;;;;4997442;28;20454;-69
2022/02/24 12:09:22;;;;;;;;;;;23.40;44.80;;;;;;5011736;28;20124;-72
2022/02/24 12:11:49;;;;;;;3.40;1.52;;;23.40;44.80;;;;;;4997332;28;20301;-66
2022/02/24 12:14:23;;;;;;;2.00;1.30;;;23.40;44.80;;;;;;5012603;28;20036;-69
2022/02/24 12:17:01;;;;;;;2.17;1.35;;;23.40;44.90;;;;;;4998064;28;20037;-68
2022/02/24 12:19:47;;;;;;;2.85;1.50;;;23.40;44.90;;;;;;4994504;28;20411;-67
2022/02/24 12:22:14;;;;;;;2.42;1.40;;;23.40;44.80;;;;;;4997505;28;20091;-68
2022/02/24 12:24:47;;;;;;;2.38;1.42;;;23.40;44.70;;;;;;4996906;28;20064;-70
2022/02/24 12:27:34;;;;;;;1.95;1.38;;;23.50;44.80;;;;;;4998248;28;20076;-71
2022/02/24 12:30:11;;;;;;;2.08;1.33;;;23.50;44.80;;;;;;4995614;28;20111;-69
2022/02/24 12:32:41;;;;;;;2.00;1.23;;;23.50;44.70;;;;;;4997854;28;20140;-71
2022/02/24 12:35:09;;;;;;;1.63;1.10;;;23.50;44.70;;;;;;4996973;28;20060;-70
2022/02/24 12:37:34;;;;;;;1.95;1.30;;;23.50;44.80;;;;;;4996861;28;20030;-68
2022/02/24 12:40:01;;;;;;;1.67;1.20;;;23.50;44.80;;;;;;4993885;28;20031;-68
2022/02/24 12:42:30;;;;;;;2.00;1.27;;;23.50;44.80;;;;;;4995791;28;20029;-68
2022/02/24 12:44:57;;;;;;;1.80;1.20;;;23.50;44.80;;;;;;4995962;28;20030;-69
2022/02/24 12:47:23;;;;;;;2.17;1.30;;;23.60;44.80;;;;;;4999919;28;20468;-67